sensor_id;sensor_type;location;lat;lon;timestamp;temperature;humidity
18361;SHT31;9308;48.550;9.108;2022-10-15T00:00:26;15.68;83.70
18361;SHT31;9308;48.550;9.108;2022-10-15T00:02:52;15.73;83.54
18361;SHT31;9308;48.550;9.108;2022-10-15T00:05:18;15.73;83.81
18361;SHT31;9308;48.550;9.108;2022-10-15T00:07:43;15.86;83.57
18361;SHT31;9308;48.550;9.108;2022-10-15T00:10:09;15.76;83.76
18361;SHT31;9308;48.550;9.108;2022-10-15T00:12:34;15.66;84.19
18361;SHT31;9308;48.550;9.108;2022-10-15T00:15:00;15.78;83.70
18361;SHT31;9308;48.550;9.108;2022-10-15T00:17:25;15.80;83.43
18361;SHT31;9308;48.550;9.108;2022-10-15T00:19:50;15.80;83.42
18361;SHT31;9308;48.550;9.108;2022-10-15T00:22:16;15.75;84.10
18361;SHT31;9308;48.550;9.108;2022-10-15T00:24:41;15.75;83.84
18361;SHT31;9308;48.550;9.108;2022-10-15T00:27:07;15.75;83.88
18361;SHT31;9308;48.550;9.108;2022-10-15T00:29:32;15.68;84.18
18361;SHT31;9308;48.550;9.108;2022-10-15T00:31:58;15.62;84.67
18361;SHT31;9308;48.550;9.108;2022-10-15T00:34:24;15.79;83.92
18361;SHT31;9308;48.550;9.108;2022-10-15T00:36:50;15.72;84.19
18361;SHT31;9308;48.550;9.108;2022-10-15T00:39:16;15.72;84.40
18361;SHT31;9308;48.550;9.108;2022-10-15T00:41:42;15.79;83.99
18361;SHT31;9308;48.550;9.108;2022-10-15T00:46:48;15.75;84.36
18361;SHT31;9308;48.550;9.108;2022-10-15T00:49:20;15.79;84.30
18361;SHT31;9308;48.550;9.108;2022-10-15T00:52:08;15.87;83.99
18361;SHT31;9308;48.550;9.108;2022-10-15T00:54:49;15.82;84.17
18361;SHT31;9308;48.550;9.108;2022-10-15T00:57:16;15.87;84.17
18361;SHT31;9308;48.550;9.108;2022-10-15T00:59:47;16.00;83.83
18361;SHT31;9308;48.550;9.108;2022-10-15T01:02:13;15.85;84.34
18361;SHT31;9308;48.550;9.108;2022-10-15T01:04:40;15.93;84.08
18361;SHT31;9308;48.550;9.108;2022-10-15T01:07:06;15.96;84.00
18361;SHT31;9308;48.550;9.108;2022-10-15T01:09:32;15.90;84.38
18361;SHT31;9308;48.550;9.108;2022-10-15T01:11:57;15.94;84.33
18361;SHT31;9308;48.550;9.108;2022-10-15T01:14:35;16.00;83.68
18361;SHT31;9308;48.550;9.108;2022-10-15T01:17:17;16.09;83.76
18361;SHT31;9308;48.550;9.108;2022-10-15T01:22:56;16.01;83.65
18361;SHT31;9308;48.550;9.108;2022-10-15T01:29:00;15.83;84.36
18361;SHT31;9308;48.550;9.108;2022-10-15T01:34:51;15.94;83.88
18361;SHT31;9308;48.550;9.108;2022-10-15T01:37:23;15.87;83.93
18361;SHT31;9308;48.550;9.108;2022-10-15T01:39:55;15.96;83.94
18361;SHT31;9308;48.550;9.108;2022-10-15T01:44:54;16.03;83.76
18361;SHT31;9308;48.550;9.108;2022-10-15T01:47:28;15.96;83.76
18361;SHT31;9308;48.550;9.108;2022-10-15T01:49:55;15.96;84.26
18361;SHT31;9308;48.550;9.108;2022-10-15T01:52:26;15.97;84.18
18361;SHT31;9308;48.550;9.108;2022-10-15T01:54:54;15.91;84.18
18361;SHT31;9308;48.550;9.108;2022-10-15T01:57:21;15.87;84.52
18361;SHT31;9308;48.550;9.108;2022-10-15T01:59:48;15.99;84.20
18361;SHT31;9308;48.550;9.108;2022-10-15T02:02:14;15.99;84.27
18361;SHT31;9308;48.550;9.108;2022-10-15T02:04:39;15.97;84.28
18361;SHT31;9308;48.550;9.108;2022-10-15T02:09:58;16.05;84.06
18361;SHT31;9308;48.550;9.108;2022-10-15T02:15:45;16.09;83.94
18361;SHT31;9308;48.550;9.108;2022-10-15T02:18:15;15.96;84.59
18361;SHT31;9308;48.550;9.108;2022-10-15T02:20:57;15.90;84.88
18361;SHT31;9308;48.550;9.108;2022-10-15T02:26:23;15.91;84.80
18361;SHT31;9308;48.550;9.108;2022-10-15T02:28:53;15.87;85.15
18361;SHT31;9308;48.550;9.108;2022-10-15T02:31:22;15.85;85.18
18361;SHT31;9308;48.550;9.108;2022-10-15T02:33:49;15.93;85.00
18361;SHT31;9308;48.550;9.108;2022-10-15T02:36:17;15.96;84.95
18361;SHT31;9308;48.550;9.108;2022-10-15T02:38:44;15.93;85.18
18361;SHT31;9308;48.550;9.108;2022-10-15T02:41:11;15.85;85.34
18361;SHT31;9308;48.550;9.108;2022-10-15T02:43:39;15.96;85.35
18361;SHT31;9308;48.550;9.108;2022-10-15T02:46:04;16.06;84.88
18361;SHT31;9308;48.550;9.108;2022-10-15T02:48:31;16.23;84.21
18361;SHT31;9308;48.550;9.108;2022-10-15T02:50:57;16.03;84.68
18361;SHT31;9308;48.550;9.108;2022-10-15T02:53:22;16.12;84.89
18361;SHT31;9308;48.550;9.108;2022-10-15T02:55:48;16.17;84.69
18361;SHT31;9308;48.550;9.108;2022-10-15T02:58:13;16.09;84.96
18361;SHT31;9308;48.550;9.108;2022-10-15T03:00:38;16.27;84.13
18361;SHT31;9308;48.550;9.108;2022-10-15T03:03:04;16.07;84.97
18361;SHT31;9308;48.550;9.108;2022-10-15T03:05:29;16.05;85.27
18361;SHT31;9308;48.550;9.108;2022-10-15T03:07:55;16.01;85.17
18361;SHT31;9308;48.550;9.108;2022-10-15T03:10:21;16.05;85.13
18361;SHT31;9308;48.550;9.108;2022-10-15T03:12:46;16.09;85.10
18361;SHT31;9308;48.550;9.108;2022-10-15T03:15:12;16.21;84.56
18361;SHT31;9308;48.550;9.108;2022-10-15T03:17:37;16.10;85.06
18361;SHT31;9308;48.550;9.108;2022-10-15T03:20:03;16.14;85.03
18361;SHT31;9308;48.550;9.108;2022-10-15T03:22:29;16.13;85.10
18361;SHT31;9308;48.550;9.108;2022-10-15T03:24:54;16.26;84.54
18361;SHT31;9308;48.550;9.108;2022-10-15T03:27:20;16.14;84.81
18361;SHT31;9308;48.550;9.108;2022-10-15T03:29:45;16.09;85.51
18361;SHT31;9308;48.550;9.108;2022-10-15T03:32:11;16.00;85.22
18361;SHT31;9308;48.550;9.108;2022-10-15T03:34:36;16.00;85.56
18361;SHT31;9308;48.550;9.108;2022-10-15T03:37:01;16.10;85.65
18361;SHT31;9308;48.550;9.108;2022-10-15T03:39:27;16.06;85.13
18361;SHT31;9308;48.550;9.108;2022-10-15T03:41:52;16.16;84.86
18361;SHT31;9308;48.550;9.108;2022-10-15T03:44:18;16.18;84.59
18361;SHT31;9308;48.550;9.108;2022-10-15T03:46:44;16.09;85.04
18361;SHT31;9308;48.550;9.108;2022-10-15T03:49:09;16.13;85.10
18361;SHT31;9308;48.550;9.108;2022-10-15T03:51:34;16.14;85.14
18361;SHT31;9308;48.550;9.108;2022-10-15T03:54:00;16.10;85.10
18361;SHT31;9308;48.550;9.108;2022-10-15T03:56:26;16.16;85.00
18361;SHT31;9308;48.550;9.108;2022-10-15T03:58:51;16.21;84.55
18361;SHT31;9308;48.550;9.108;2022-10-15T04:01:17;16.06;85.41
18361;SHT31;9308;48.550;9.108;2022-10-15T04:03:43;16.14;85.05
18361;SHT31;9308;48.550;9.108;2022-10-15T04:06:09;16.16;84.81
18361;SHT31;9308;48.550;9.108;2022-10-15T04:08:34;16.16;84.84
18361;SHT31;9308;48.550;9.108;2022-10-15T04:11:00;16.10;84.74
18361;SHT31;9308;48.550;9.108;2022-10-15T04:13:26;16.06;85.20
18361;SHT31;9308;48.550;9.108;2022-10-15T04:15:52;16.16;84.90
18361;SHT31;9308;48.550;9.108;2022-10-15T04:18:18;16.14;84.70
18361;SHT31;9308;48.550;9.108;2022-10-15T04:20:48;16.09;85.01
18361;SHT31;9308;48.550;9.108;2022-10-15T04:23:15;16.09;85.01
18361;SHT31;9308;48.550;9.108;2022-10-15T04:25:41;16.07;84.84
18361;SHT31;9308;48.550;9.108;2022-10-15T04:28:07;16.17;84.79
18361;SHT31;9308;48.550;9.108;2022-10-15T04:30:33;16.18;84.82
18361;SHT31;9308;48.550;9.108;2022-10-15T04:32:58;16.27;84.03
18361;SHT31;9308;48.550;9.108;2022-10-15T04:35:23;16.27;84.23
18361;SHT31;9308;48.550;9.108;2022-10-15T04:37:49;16.21;84.34
18361;SHT31;9308;48.550;9.108;2022-10-15T04:40:15;16.21;84.52
18361;SHT31;9308;48.550;9.108;2022-10-15T04:42:41;16.26;84.20
18361;SHT31;9308;48.550;9.108;2022-10-15T04:45:07;16.24;83.99
18361;SHT31;9308;48.550;9.108;2022-10-15T04:47:33;16.24;84.01
18361;SHT31;9308;48.550;9.108;2022-10-15T04:49:58;16.14;84.54
18361;SHT31;9308;48.550;9.108;2022-10-15T04:52:24;16.17;84.64
18361;SHT31;9308;48.550;9.108;2022-10-15T04:54:49;16.16;84.35
18361;SHT31;9308;48.550;9.108;2022-10-15T04:57:15;16.17;84.26
18361;SHT31;9308;48.550;9.108;2022-10-15T04:59:41;16.20;84.45
18361;SHT31;9308;48.550;9.108;2022-10-15T05:02:07;16.24;84.19
18361;SHT31;9308;48.550;9.108;2022-10-15T05:04:33;16.20;84.16
18361;SHT31;9308;48.550;9.108;2022-10-15T05:06:58;16.13;84.27
18361;SHT31;9308;48.550;9.108;2022-10-15T05:09:24;16.14;84.30
18361;SHT31;9308;48.550;9.108;2022-10-15T05:11:49;16.13;84.13
18361;SHT31;9308;48.550;9.108;2022-10-15T05:14:15;16.12;84.35
18361;SHT31;9308;48.550;9.108;2022-10-15T05:16:40;16.10;84.21
18361;SHT31;9308;48.550;9.108;2022-10-15T05:19:07;16.12;84.22
18361;SHT31;9308;48.550;9.108;2022-10-15T05:21:33;16.16;83.85
18361;SHT31;9308;48.550;9.108;2022-10-15T05:23:59;16.01;84.27
18361;SHT31;9308;48.550;9.108;2022-10-15T05:26:26;15.97;84.44
18361;SHT31;9308;48.550;9.108;2022-10-15T05:28:52;15.97;84.53
18361;SHT31;9308;48.550;9.108;2022-10-15T05:31:19;15.94;84.44
18361;SHT31;9308;48.550;9.108;2022-10-15T05:33:50;15.87;84.84
18361;SHT31;9308;48.550;9.108;2022-10-15T05:38:45;15.96;84.34
18361;SHT31;9308;48.550;9.108;2022-10-15T05:41:11;15.96;84.34
18361;SHT31;9308;48.550;9.108;2022-10-15T05:43:37;15.96;84.24
18361;SHT31;9308;48.550;9.108;2022-10-15T05:46:03;15.97;84.26
18361;SHT31;9308;48.550;9.108;2022-10-15T05:48:28;15.99;84.06
18361;SHT31;9308;48.550;9.108;2022-10-15T05:51:02;16.18;83.53
18361;SHT31;9308;48.550;9.108;2022-10-15T05:53:28;16.06;83.86
18361;SHT31;9308;48.550;9.108;2022-10-15T05:55:55;16.12;84.00
18361;SHT31;9308;48.550;9.108;2022-10-15T05:58:20;16.26;83.41
18361;SHT31;9308;48.550;9.108;2022-10-15T06:00:53;16.21;83.50
18361;SHT31;9308;48.550;9.108;2022-10-15T06:03:19;16.28;83.00
18361;SHT31;9308;48.550;9.108;2022-10-15T06:05:44;16.34;82.60
18361;SHT31;9308;48.550;9.108;2022-10-15T06:08:10;16.24;83.15
18361;SHT31;9308;48.550;9.108;2022-10-15T06:10:35;16.06;83.83
18361;SHT31;9308;48.550;9.108;2022-10-15T06:13:02;16.27;83.32
18361;SHT31;9308;48.550;9.108;2022-10-15T06:15:28;16.24;82.91
18361;SHT31;9308;48.550;9.108;2022-10-15T06:17:53;16.28;82.69
18361;SHT31;9308;48.550;9.108;2022-10-15T06:20:19;16.28;82.54
18361;SHT31;9308;48.550;9.108;2022-10-15T06:22:44;16.31;82.75
18361;SHT31;9308;48.550;9.108;2022-10-15T06:25:10;16.34;82.93
18361;SHT31;9308;48.550;9.108;2022-10-15T06:27:35;16.30;82.85
18361;SHT31;9308;48.550;9.108;2022-10-15T06:30:01;16.23;83.34
18361;SHT31;9308;48.550;9.108;2022-10-15T06:32:26;16.26;83.37
18361;SHT31;9308;48.550;9.108;2022-10-15T06:34:52;16.30;82.91
18361;SHT31;9308;48.550;9.108;2022-10-15T06:37:17;16.33;82.81
18361;SHT31;9308;48.550;9.108;2022-10-15T06:39:43;16.40;82.81
18361;SHT31;9308;48.550;9.108;2022-10-15T06:42:11;16.44;82.69
18361;SHT31;9308;48.550;9.108;2022-10-15T06:44:37;16.42;82.99
18361;SHT31;9308;48.550;9.108;2022-10-15T06:47:02;16.51;82.67
18361;SHT31;9308;48.550;9.108;2022-10-15T06:49:28;16.41;82.74
18361;SHT31;9308;48.550;9.108;2022-10-15T06:51:53;16.31;82.58
18361;SHT31;9308;48.550;9.108;2022-10-15T06:54:18;16.58;81.84
18361;SHT31;9308;48.550;9.108;2022-10-15T06:56:44;16.55;81.90
18361;SHT31;9308;48.550;9.108;2022-10-15T06:59:09;16.33;82.68
18361;SHT31;9308;48.550;9.108;2022-10-15T07:01:35;16.47;82.48
18361;SHT31;9308;48.550;9.108;2022-10-15T07:04:00;16.41;82.84
18361;SHT31;9308;48.550;9.108;2022-10-15T07:06:25;16.37;82.74
18361;SHT31;9308;48.550;9.108;2022-10-15T07:08:51;16.49;82.65
18361;SHT31;9308;48.550;9.108;2022-10-15T07:11:16;16.64;82.35
18361;SHT31;9308;48.550;9.108;2022-10-15T07:13:42;16.62;82.54
18361;SHT31;9308;48.550;9.108;2022-10-15T07:16:10;16.65;82.77
18361;SHT31;9308;48.550;9.108;2022-10-15T07:18:36;16.61;82.95
18361;SHT31;9308;48.550;9.108;2022-10-15T07:21:03;16.59;83.12
18361;SHT31;9308;48.550;9.108;2022-10-15T07:23:29;16.65;82.84
18361;SHT31;9308;48.550;9.108;2022-10-15T07:25:58;16.72;82.76
18361;SHT31;9308;48.550;9.108;2022-10-15T07:28:24;16.55;83.32
18361;SHT31;9308;48.550;9.108;2022-10-15T07:30:50;16.75;82.83
18361;SHT31;9308;48.550;9.108;2022-10-15T07:33:16;16.68;83.32
18361;SHT31;9308;48.550;9.108;2022-10-15T07:35:41;16.71;83.34
18361;SHT31;9308;48.550;9.108;2022-10-15T07:38:07;16.75;83.56
18361;SHT31;9308;48.550;9.108;2022-10-15T07:40:32;16.86;83.24
18361;SHT31;9308;48.550;9.108;2022-10-15T07:42:58;17.03;82.86
18361;SHT31;9308;48.550;9.108;2022-10-15T07:45:25;16.98;83.12
18361;SHT31;9308;48.550;9.108;2022-10-15T07:47:52;16.99;82.91
18361;SHT31;9308;48.550;9.108;2022-10-15T07:50:18;17.04;82.90
18361;SHT31;9308;48.550;9.108;2022-10-15T07:52:44;17.06;82.72
18361;SHT31;9308;48.550;9.108;2022-10-15T07:55:10;17.11;82.53
18361;SHT31;9308;48.550;9.108;2022-10-15T07:57:36;17.21;82.40
18361;SHT31;9308;48.550;9.108;2022-10-15T08:00:02;17.19;83.06
18361;SHT31;9308;48.550;9.108;2022-10-15T08:02:27;17.32;82.62
18361;SHT31;9308;48.550;9.108;2022-10-15T08:04:53;17.57;82.08
18361;SHT31;9308;48.550;9.108;2022-10-15T08:07:18;17.49;82.40
18361;SHT31;9308;48.550;9.108;2022-10-15T08:09:43;17.59;82.64
18361;SHT31;9308;48.550;9.108;2022-10-15T08:12:09;17.62;81.96
18361;SHT31;9308;48.550;9.108;2022-10-15T08:14:35;17.62;82.07
18361;SHT31;9308;48.550;9.108;2022-10-15T08:17:02;17.68;82.06
18361;SHT31;9308;48.550;9.108;2022-10-15T08:19:28;17.81;81.66
18361;SHT31;9308;48.550;9.108;2022-10-15T08:21:54;17.97;81.20
18361;SHT31;9308;48.550;9.108;2022-10-15T08:24:19;18.00;80.75
18361;SHT31;9308;48.550;9.108;2022-10-15T08:26:45;18.00;80.87
18361;SHT31;9308;48.550;9.108;2022-10-15T08:29:11;18.17;80.31
18361;SHT31;9308;48.550;9.108;2022-10-15T08:31:38;18.41;79.75
18361;SHT31;9308;48.550;9.108;2022-10-15T08:34:03;18.65;78.83
18361;SHT31;9308;48.550;9.108;2022-10-15T08:36:29;18.71;78.52
18361;SHT31;9308;48.550;9.108;2022-10-15T08:38:55;18.61;79.65
18361;SHT31;9308;48.550;9.108;2022-10-15T08:43:58;19.20;77.74
18361;SHT31;9308;48.550;9.108;2022-10-15T08:46:45;19.28;77.46
18361;SHT31;9308;48.550;9.108;2022-10-15T08:49:51;19.17;78.06
18361;SHT31;9308;48.550;9.108;2022-10-15T08:52:40;19.33;76.89
18361;SHT31;9308;48.550;9.108;2022-10-15T08:55:15;19.26;75.97
18361;SHT31;9308;48.550;9.108;2022-10-15T09:00:42;19.98;74.24
18361;SHT31;9308;48.550;9.108;2022-10-15T09:03:28;19.75;74.77
18361;SHT31;9308;48.550;9.108;2022-10-15T09:06:08;19.82;74.76
18361;SHT31;9308;48.550;9.108;2022-10-15T09:14:03;19.06;76.82
18361;SHT31;9308;48.550;9.108;2022-10-15T09:16:33;19.03;76.54
18361;SHT31;9308;48.550;9.108;2022-10-15T09:19:03;18.96;76.96
18361;SHT31;9308;48.550;9.108;2022-10-15T09:21:29;18.95;76.74
18361;SHT31;9308;48.550;9.108;2022-10-15T09:24:00;18.93;76.98
18361;SHT31;9308;48.550;9.108;2022-10-15T09:26:33;19.06;77.62
18361;SHT31;9308;48.550;9.108;2022-10-15T09:31:51;19.22;76.06
18361;SHT31;9308;48.550;9.108;2022-10-15T09:34:41;19.34;74.60
18361;SHT31;9308;48.550;9.108;2022-10-15T09:37:20;19.64;74.55
18361;SHT31;9308;48.550;9.108;2022-10-15T09:42:43;20.21;72.56
18361;SHT31;9308;48.550;9.108;2022-10-15T09:45:11;20.37;72.08
18361;SHT31;9308;48.550;9.108;2022-10-15T09:47:39;20.67;70.71
18361;SHT31;9308;48.550;9.108;2022-10-15T09:50:07;20.58;71.19
18361;SHT31;9308;48.550;9.108;2022-10-15T09:58:16;21.85;67.60
18361;SHT31;9308;48.550;9.108;2022-10-15T10:00:56;25.38;55.30
18361;SHT31;9308;48.550;9.108;2022-10-15T10:03:24;24.94;56.17
18361;SHT31;9308;48.550;9.108;2022-10-15T10:05:50;23.22;59.95
18361;SHT31;9308;48.550;9.108;2022-10-15T10:08:24;23.28;59.53
18361;SHT31;9308;48.550;9.108;2022-10-15T10:10:58;30.08;44.23
18361;SHT31;9308;48.550;9.108;2022-10-15T10:13:27;24.36;55.56
18361;SHT31;9308;48.550;9.108;2022-10-15T10:15:54;22.77;61.21
18361;SHT31;9308;48.550;9.108;2022-10-15T10:18:24;22.19;59.98
18361;SHT31;9308;48.550;9.108;2022-10-15T10:20:56;23.16;60.95
18361;SHT31;9308;48.550;9.108;2022-10-15T10:23:37;26.70;50.38
18361;SHT31;9308;48.550;9.108;2022-10-15T10:26:08;24.40;55.28
18361;SHT31;9308;48.550;9.108;2022-10-15T10:31:11;26.02;48.89
18361;SHT31;9308;48.550;9.108;2022-10-15T10:36:07;34.93;36.44
18361;SHT31;9308;48.550;9.108;2022-10-15T10:38:54;26.60;49.17
18361;SHT31;9308;48.550;9.108;2022-10-15T10:41:19;23.64;54.92
18361;SHT31;9308;48.550;9.108;2022-10-15T10:43:53;24.32;56.48
18361;SHT31;9308;48.550;9.108;2022-10-15T10:46:20;25.58;51.66
18361;SHT31;9308;48.550;9.108;2022-10-15T10:48:51;23.85;55.26
18361;SHT31;9308;48.550;9.108;2022-10-15T10:51:21;25.42;52.52
18361;SHT31;9308;48.550;9.108;2022-10-15T10:56:13;23.18;56.95
18361;SHT31;9308;48.550;9.108;2022-10-15T10:58:40;22.39;59.24
18361;SHT31;9308;48.550;9.108;2022-10-15T11:01:10;21.34;63.00
18361;SHT31;9308;48.550;9.108;2022-10-15T11:03:39;21.23;63.48
18361;SHT31;9308;48.550;9.108;2022-10-15T11:06:22;21.24;63.21
18361;SHT31;9308;48.550;9.108;2022-10-15T11:09:12;20.92;64.48
18361;SHT31;9308;48.550;9.108;2022-10-15T11:12:10;20.65;64.36
18361;SHT31;9308;48.550;9.108;2022-10-15T11:17:28;21.68;62.72
18361;SHT31;9308;48.550;9.108;2022-10-15T11:20:07;21.75;62.48
18361;SHT31;9308;48.550;9.108;2022-10-15T11:25:45;21.54;61.07
18361;SHT31;9308;48.550;9.108;2022-10-15T11:28:31;21.51;61.50
18361;SHT31;9308;48.550;9.108;2022-10-15T11:31:32;21.55;60.95
18361;SHT31;9308;48.550;9.108;2022-10-15T11:39:53;22.73;58.51
18361;SHT31;9308;48.550;9.108;2022-10-15T11:42:47;23.88;54.93
18361;SHT31;9308;48.550;9.108;2022-10-15T11:47:58;36.73;31.73
18361;SHT31;9308;48.550;9.108;2022-10-15T11:56:00;34.29;34.48
18361;SHT31;9308;48.550;9.108;2022-10-15T12:00:59;35.47;34.02
18361;SHT31;9308;48.550;9.108;2022-10-15T12:03:28;31.15;40.12
18361;SHT31;9308;48.550;9.108;2022-10-15T12:06:00;32.94;34.25
18361;SHT31;9308;48.550;9.108;2022-10-15T12:08:31;27.18;45.70
18361;SHT31;9308;48.550;9.108;2022-10-15T12:17:13;26.66;45.71
18361;SHT31;9308;48.550;9.108;2022-10-15T12:19:47;28.02;45.23
18361;SHT31;9308;48.550;9.108;2022-10-15T12:22:39;26.34;48.48
18361;SHT31;9308;48.550;9.108;2022-10-15T12:30:39;23.40;52.98
18361;SHT31;9308;48.550;9.108;2022-10-15T12:36:18;23.26;54.47
18361;SHT31;9308;48.550;9.108;2022-10-15T12:38:55;22.82;55.38
18361;SHT31;9308;48.550;9.108;2022-10-15T12:41:34;22.52;55.32
18361;SHT31;9308;48.550;9.108;2022-10-15T12:44:23;22.30;56.62
18361;SHT31;9308;48.550;9.108;2022-10-15T12:46:50;22.06;57.11
18361;SHT31;9308;48.550;9.108;2022-10-15T12:55:34;22.81;55.48
18361;SHT31;9308;48.550;9.108;2022-10-15T13:00:49;23.02;56.34
18361;SHT31;9308;48.550;9.108;2022-10-15T13:05:46;22.33;57.13
18361;SHT31;9308;48.550;9.108;2022-10-15T13:08:18;22.25;57.55
18361;SHT31;9308;48.550;9.108;2022-10-15T13:10:50;22.17;57.82
18361;SHT31;9308;48.550;9.108;2022-10-15T13:13:21;22.27;56.93
18361;SHT31;9308;48.550;9.108;2022-10-15T13:16:01;21.79;58.14
18361;SHT31;9308;48.550;9.108;2022-10-15T13:18:31;21.49;60.36
18361;SHT31;9308;48.550;9.108;2022-10-15T13:20:58;21.62;60.17
18361;SHT31;9308;48.550;9.108;2022-10-15T13:23:30;21.47;59.29
18361;SHT31;9308;48.550;9.108;2022-10-15T13:28:41;20.98;61.35
18361;SHT31;9308;48.550;9.108;2022-10-15T13:31:18;21.12;61.34
18361;SHT31;9308;48.550;9.108;2022-10-15T13:33:48;21.13;61.36
18361;SHT31;9308;48.550;9.108;2022-10-15T13:36:23;21.17;60.48
18361;SHT31;9308;48.550;9.108;2022-10-15T13:38:57;20.91;61.74
18361;SHT31;9308;48.550;9.108;2022-10-15T13:41:29;20.79;61.57
18361;SHT31;9308;48.550;9.108;2022-10-15T13:43:55;20.68;62.39
18361;SHT31;9308;48.550;9.108;2022-10-15T13:46:27;20.68;63.00
18361;SHT31;9308;48.550;9.108;2022-10-15T13:48:59;20.72;63.51
18361;SHT31;9308;48.550;9.108;2022-10-15T13:51:33;21.00;62.87
18361;SHT31;9308;48.550;9.108;2022-10-15T13:54:00;20.95;62.96
18361;SHT31;9308;48.550;9.108;2022-10-15T13:56:29;20.84;62.99
18361;SHT31;9308;48.550;9.108;2022-10-15T13:58:55;20.47;62.81
18361;SHT31;9308;48.550;9.108;2022-10-15T14:01:23;20.33;63.45
18361;SHT31;9308;48.550;9.108;2022-10-15T14:03:50;20.12;63.50
18361;SHT31;9308;48.550;9.108;2022-10-15T14:06:28;20.23;64.52
18361;SHT31;9308;48.550;9.108;2022-10-15T14:08:58;20.39;64.34
18361;SHT31;9308;48.550;9.108;2022-10-15T14:11:25;20.08;64.87
18361;SHT31;9308;48.550;9.108;2022-10-15T14:13:54;19.89;64.64
18361;SHT31;9308;48.550;9.108;2022-10-15T14:16:26;19.86;64.95
18361;SHT31;9308;48.550;9.108;2022-10-15T14:19:07;20.10;63.69
18361;SHT31;9308;48.550;9.108;2022-10-15T14:21:34;20.23;64.09
18361;SHT31;9308;48.550;9.108;2022-10-15T14:24:06;20.14;63.90
18361;SHT31;9308;48.550;9.108;2022-10-15T14:26:32;20.34;64.90
18361;SHT31;9308;48.550;9.108;2022-10-15T14:28:59;20.14;64.26
18361;SHT31;9308;48.550;9.108;2022-10-15T14:31:37;20.29;63.93
18361;SHT31;9308;48.550;9.108;2022-10-15T14:34:02;20.36;63.91
18361;SHT31;9308;48.550;9.108;2022-10-15T14:36:30;20.36;64.41
18361;SHT31;9308;48.550;9.108;2022-10-15T14:39:29;20.40;64.38
18361;SHT31;9308;48.550;9.108;2022-10-15T14:42:21;20.48;64.04
18361;SHT31;9308;48.550;9.108;2022-10-15T14:44:49;20.33;64.02
18361;SHT31;9308;48.550;9.108;2022-10-15T14:47:19;20.23;65.30
18361;SHT31;9308;48.550;9.108;2022-10-15T14:49:45;20.55;65.44
18361;SHT31;9308;48.550;9.108;2022-10-15T14:52:14;20.52;65.31
18361;SHT31;9308;48.550;9.108;2022-10-15T14:54:46;20.52;64.04
18361;SHT31;9308;48.550;9.108;2022-10-15T14:57:23;20.75;63.58
18361;SHT31;9308;48.550;9.108;2022-10-15T14:59:52;20.86;62.27
18361;SHT31;9308;48.550;9.108;2022-10-15T15:02:19;20.82;63.21
18361;SHT31;9308;48.550;9.108;2022-10-15T15:05:02;20.74;62.63
18361;SHT31;9308;48.550;9.108;2022-10-15T15:07:28;20.72;63.31
18361;SHT31;9308;48.550;9.108;2022-10-15T15:09:54;20.30;64.82
18361;SHT31;9308;48.550;9.108;2022-10-15T15:12:22;20.48;64.69
18361;SHT31;9308;48.550;9.108;2022-10-15T15:14:49;20.54;65.04
18361;SHT31;9308;48.550;9.108;2022-10-15T15:17:19;20.68;63.77
18361;SHT31;9308;48.550;9.108;2022-10-15T15:19:46;20.47;64.07
18361;SHT31;9308;48.550;9.108;2022-10-15T15:22:15;20.48;64.52
18361;SHT31;9308;48.550;9.108;2022-10-15T15:24:40;20.27;63.99
18361;SHT31;9308;48.550;9.108;2022-10-15T15:27:08;20.24;63.79
18361;SHT31;9308;48.550;9.108;2022-10-15T15:29:35;20.08;64.19
18361;SHT31;9308;48.550;9.108;2022-10-15T15:32:00;19.89;65.04
18361;SHT31;9308;48.550;9.108;2022-10-15T15:34:25;19.78;65.42
18361;SHT31;9308;48.550;9.108;2022-10-15T15:36:51;19.68;65.60
18361;SHT31;9308;48.550;9.108;2022-10-15T15:39:16;19.69;65.38
18361;SHT31;9308;48.550;9.108;2022-10-15T15:41:42;19.71;65.43
18361;SHT31;9308;48.550;9.108;2022-10-15T15:44:10;19.47;66.10
18361;SHT31;9308;48.550;9.108;2022-10-15T15:46:36;19.54;67.53
18361;SHT31;9308;48.550;9.108;2022-10-15T15:49:01;19.55;67.81
18361;SHT31;9308;48.550;9.108;2022-10-15T15:51:28;19.51;66.54
18361;SHT31;9308;48.550;9.108;2022-10-15T15:53:55;19.38;66.83
18361;SHT31;9308;48.550;9.108;2022-10-15T15:56:21;19.51;66.99
18361;SHT31;9308;48.550;9.108;2022-10-15T15:58:47;19.33;66.88
18361;SHT31;9308;48.550;9.108;2022-10-15T16:01:15;19.33;67.13
18361;SHT31;9308;48.550;9.108;2022-10-15T16:03:41;19.55;66.54
18361;SHT31;9308;48.550;9.108;2022-10-15T16:06:07;19.51;68.03
18361;SHT31;9308;48.550;9.108;2022-10-15T16:08:36;19.57;67.26
18361;SHT31;9308;48.550;9.108;2022-10-15T16:11:02;19.53;67.29
18361;SHT31;9308;48.550;9.108;2022-10-15T16:13:29;19.41;68.78
18361;SHT31;9308;48.550;9.108;2022-10-15T16:15:54;19.37;66.51
18361;SHT31;9308;48.550;9.108;2022-10-15T16:18:20;19.10;67.32
18361;SHT31;9308;48.550;9.108;2022-10-15T16:20:45;18.88;69.55
18361;SHT31;9308;48.550;9.108;2022-10-15T16:23:11;18.96;68.23
18361;SHT31;9308;48.550;9.108;2022-10-15T16:25:36;18.96;69.03
18361;SHT31;9308;48.550;9.108;2022-10-15T16:28:02;18.78;68.48
18361;SHT31;9308;48.550;9.108;2022-10-15T16:30:28;18.75;69.81
18361;SHT31;9308;48.550;9.108;2022-10-15T16:32:54;18.73;69.58
18361;SHT31;9308;48.550;9.108;2022-10-15T16:35:19;18.64;70.22
18361;SHT31;9308;48.550;9.108;2022-10-15T16:37:45;18.62;71.16
18361;SHT31;9308;48.550;9.108;2022-10-15T16:40:11;18.60;70.53
18361;SHT31;9308;48.550;9.108;2022-10-15T16:42:36;18.61;70.21
18361;SHT31;9308;48.550;9.108;2022-10-15T16:45:03;18.47;70.66
18361;SHT31;9308;48.550;9.108;2022-10-15T16:47:28;18.24;71.75
18361;SHT31;9308;48.550;9.108;2022-10-15T16:49:54;18.20;72.33
18361;SHT31;9308;48.550;9.108;2022-10-15T16:52:19;18.17;72.70
18361;SHT31;9308;48.550;9.108;2022-10-15T16:54:45;18.09;72.87
18361;SHT31;9308;48.550;9.108;2022-10-15T16:57:10;18.16;72.81
18361;SHT31;9308;48.550;9.108;2022-10-15T16:59:36;18.10;72.66
18361;SHT31;9308;48.550;9.108;2022-10-15T17:02:01;18.12;72.95
18361;SHT31;9308;48.550;9.108;2022-10-15T17:04:27;18.12;73.03
18361;SHT31;9308;48.550;9.108;2022-10-15T17:06:52;18.09;73.19
18361;SHT31;9308;48.550;9.108;2022-10-15T17:09:18;18.13;72.48
18361;SHT31;9308;48.550;9.108;2022-10-15T17:11:44;18.09;72.59
18361;SHT31;9308;48.550;9.108;2022-10-15T17:14:14;18.07;72.89
18361;SHT31;9308;48.550;9.108;2022-10-15T17:16:45;18.05;71.98
18361;SHT31;9308;48.550;9.108;2022-10-15T17:19:12;17.99;71.97
18361;SHT31;9308;48.550;9.108;2022-10-15T17:21:39;18.03;72.17
18361;SHT31;9308;48.550;9.108;2022-10-15T17:24:06;18.14;71.19
18361;SHT31;9308;48.550;9.108;2022-10-15T17:26:35;18.13;72.45
18361;SHT31;9308;48.550;9.108;2022-10-15T17:29:03;17.97;72.51
18361;SHT31;9308;48.550;9.108;2022-10-15T17:31:29;18.10;71.78
18361;SHT31;9308;48.550;9.108;2022-10-15T17:34:03;17.95;72.34
18361;SHT31;9308;48.550;9.108;2022-10-15T17:36:30;17.97;72.20
18361;SHT31;9308;48.550;9.108;2022-10-15T17:38:59;17.96;72.12
18361;SHT31;9308;48.550;9.108;2022-10-15T17:41:27;17.92;71.43